sensor_id;sensor_type;location;lat;lon;timestamp;temperature;humidity
27306;DHT22;14792;50.886;6.468;2023-02-10T00:00:03;3.60;99.90
27306;DHT22;14792;50.886;6.468;2023-02-10T00:03:03;3.70;99.90
27306;DHT22;14792;50.886;6.468;2023-02-10T00:06:05;3.70;99.90
27306;DHT22;14792;50.886;6.468;2023-02-10T00:09:06;3.70;99.90
27306;DHT22;14792;50.886;6.468;2023-02-10T00:12:08;3.70;99.90
27306;DHT22;14792;50.886;6.468;2023-02-10T00:15:10;3.70;99.90
27306;DHT22;14792;50.886;6.468;2023-02-10T00:18:11;3.70;99.90
27306;DHT22;14792;50.886;6.468;2023-02-10T00:21:14;3.70;99.90
27306;DHT22;14792;50.886;6.468;2023-02-10T00:24:14;3.70;99.90
27306;DHT22;14792;50.886;6.468;2023-02-10T00:27:16;3.70;99.90
27306;DHT22;14792;50.886;6.468;2023-02-10T00:30:17;3.70;99.90
27306;DHT22;14792;50.886;6.468;2023-02-10T00:33:19;3.80;99.90
27306;DHT22;14792;50.886;6.468;2023-02-10T00:36:21;3.70;99.90
27306;DHT22;14792;50.886;6.468;2023-02-10T00:39:22;3.70;99.90
27306;DHT22;14792;50.886;6.468;2023-02-10T00:42:24;3.70;99.90
27306;DHT22;14792;50.886;6.468;2023-02-10T00:45:25;3.70;99.90
27306;DHT22;14792;50.886;6.468;2023-02-10T00:48:27;3.60;99.90
27306;DHT22;14792;50.886;6.468;2023-02-10T00:51:29;3.60;99.90
27306;DHT22;14792;50.886;6.468;2023-02-10T00:54:30;3.60;99.90
27306;DHT22;14792;50.886;6.468;2023-02-10T00:57:32;3.70;99.90
27306;DHT22;14792;50.886;6.468;2023-02-10T01:00:33;3.70;99.90
27306;DHT22;14792;50.886;6.468;2023-02-10T01:03:35;3.70;99.90
27306;DHT22;14792;50.886;6.468;2023-02-10T01:06:37;3.60;99.90
27306;DHT22;14792;50.886;6.468;2023-02-10T01:09:38;3.70;99.90
27306;DHT22;14792;50.886;6.468;2023-02-10T01:12:40;3.70;99.90
27306;DHT22;14792;50.886;6.468;2023-02-10T01:15:45;3.70;99.90
27306;DHT22;14792;50.886;6.468;2023-02-10T01:18:48;3.70;99.90
27306;DHT22;14792;50.886;6.468;2023-02-10T01:21:50;3.80;99.90
27306;DHT22;14792;50.886;6.468;2023-02-10T01:24:51;3.80;99.90
27306;DHT22;14792;50.886;6.468;2023-02-10T01:27:53;3.80;99.90
27306;DHT22;14792;50.886;6.468;2023-02-10T01:30:55;3.80;99.90
27306;DHT22;14792;50.886;6.468;2023-02-10T01:33:56;3.80;99.90
27306;DHT22;14792;50.886;6.468;2023-02-10T01:36:58;3.80;99.90
27306;DHT22;14792;50.886;6.468;2023-02-10T01:39:59;3.90;99.90
27306;DHT22;14792;50.886;6.468;2023-02-10T01:43:01;3.80;99.90
27306;DHT22;14792;50.886;6.468;2023-02-10T01:46:02;3.80;99.90
27306;DHT22;14792;50.886;6.468;2023-02-10T01:49:05;3.80;99.90
27306;DHT22;14792;50.886;6.468;2023-02-10T01:52:07;3.80;99.90
27306;DHT22;14792;50.886;6.468;2023-02-10T01:55:09;3.70;99.90
27306;DHT22;14792;50.886;6.468;2023-02-10T01:58:10;3.80;99.90
27306;DHT22;14792;50.886;6.468;2023-02-10T02:01:10;3.70;99.90
27306;DHT22;14792;50.886;6.468;2023-02-10T02:04:12;3.70;99.90
27306;DHT22;14792;50.886;6.468;2023-02-10T02:07:14;3.70;99.90
27306;DHT22;14792;50.886;6.468;2023-02-10T02:10:15;3.80;99.90
27306;DHT22;14792;50.886;6.468;2023-02-10T02:13:23;3.70;99.90
27306;DHT22;14792;50.886;6.468;2023-02-10T02:23:05;3.70;99.90
27306;DHT22;14792;50.886;6.468;2023-02-10T02:26:13;3.70;99.90
27306;DHT22;14792;50.886;6.468;2023-02-10T02:29:34;3.70;99.90
27306;DHT22;14792;50.886;6.468;2023-02-10T02:32:35;3.80;99.90
27306;DHT22;14792;50.886;6.468;2023-02-10T02:35:43;3.70;99.90
27306;DHT22;14792;50.886;6.468;2023-02-10T02:38:42;3.70;99.90
27306;DHT22;14792;50.886;6.468;2023-02-10T02:41:44;3.70;99.90
27306;DHT22;14792;50.886;6.468;2023-02-10T02:44:55;3.70;99.90
27306;DHT22;14792;50.886;6.468;2023-02-10T02:51:18;3.60;99.90
27306;DHT22;14792;50.886;6.468;2023-02-10T02:54:26;3.60;99.90
27306;DHT22;14792;50.886;6.468;2023-02-10T02:57:29;3.60;99.90
27306;DHT22;14792;50.886;6.468;2023-02-10T03:00:29;3.60;99.90
27306;DHT22;14792;50.886;6.468;2023-02-10T03:03:30;3.60;99.90
27306;DHT22;14792;50.886;6.468;2023-02-10T03:06:31;3.50;99.90
27306;DHT22;14792;50.886;6.468;2023-02-10T03:09:33;3.60;99.90
27306;DHT22;14792;50.886;6.468;2023-02-10T03:12:34;3.50;99.90
27306;DHT22;14792;50.886;6.468;2023-02-10T03:15:36;3.60;99.90
27306;DHT22;14792;50.886;6.468;2023-02-10T03:18:37;3.50;99.90
27306;DHT22;14792;50.886;6.468;2023-02-10T03:21:39;3.50;99.90
27306;DHT22;14792;50.886;6.468;2023-02-10T03:24:41;3.50;99.90
27306;DHT22;14792;50.886;6.468;2023-02-10T03:27:42;3.50;99.90
27306;DHT22;14792;50.886;6.468;2023-02-10T03:30:44;3.50;99.90
27306;DHT22;14792;50.886;6.468;2023-02-10T03:33:45;3.50;99.90
27306;DHT22;14792;50.886;6.468;2023-02-10T03:36:47;3.50;99.90
27306;DHT22;14792;50.886;6.468;2023-02-10T03:39:49;3.50;99.90
27306;DHT22;14792;50.886;6.468;2023-02-10T03:42:50;3.50;99.90
27306;DHT22;14792;50.886;6.468;2023-02-10T03:45:52;3.40;99.90
27306;DHT22;14792;50.886;6.468;2023-02-10T03:48:53;3.30;99.90
27306;DHT22;14792;50.886;6.468;2023-02-10T03:51:55;3.30;99.90
27306;DHT22;14792;50.886;6.468;2023-02-10T03:54:57;3.20;99.90
27306;DHT22;14792;50.886;6.468;2023-02-10T03:57:59;3.20;99.90
27306;DHT22;14792;50.886;6.468;2023-02-10T04:01:00;3.00;99.90
27306;DHT22;14792;50.886;6.468;2023-02-10T04:04:01;3.00;99.90
27306;DHT22;14792;50.886;6.468;2023-02-10T04:07:03;2.90;99.90
27306;DHT22;14792;50.886;6.468;2023-02-10T04:10:05;2.90;99.90
27306;DHT22;14792;50.886;6.468;2023-02-10T04:13:06;2.90;99.90
27306;DHT22;14792;50.886;6.468;2023-02-10T04:16:12;2.80;99.90
27306;DHT22;14792;50.886;6.468;2023-02-10T04:19:12;2.70;99.90
27306;DHT22;14792;50.886;6.468;2023-02-10T04:22:14;2.70;99.90
27306;DHT22;14792;50.886;6.468;2023-02-10T04:25:15;2.60;99.90
27306;DHT22;14792;50.886;6.468;2023-02-10T04:28:17;2.60;99.90
27306;DHT22;14792;50.886;6.468;2023-02-10T04:31:19;2.50;99.90
27306;DHT22;14792;50.886;6.468;2023-02-10T04:34:20;2.30;99.90
27306;DHT22;14792;50.886;6.468;2023-02-10T04:37:22;2.20;99.90
27306;DHT22;14792;50.886;6.468;2023-02-10T04:40:23;2.00;99.90
27306;DHT22;14792;50.886;6.468;2023-02-10T04:43:25;1.90;99.90
27306;DHT22;14792;50.886;6.468;2023-02-10T04:46:26;1.90;99.90
27306;DHT22;14792;50.886;6.468;2023-02-10T04:49:28;1.70;99.90
27306;DHT22;14792;50.886;6.468;2023-02-10T04:52:30;1.60;99.90
27306;DHT22;14792;50.886;6.468;2023-02-10T04:55:32;1.60;99.90
27306;DHT22;14792;50.886;6.468;2023-02-10T04:58:33;1.60;99.90
27306;DHT22;14792;50.886;6.468;2023-02-10T05:01:34;1.60;99.90
27306;DHT22;14792;50.886;6.468;2023-02-10T05:04:36;1.40;99.90
27306;DHT22;14792;50.886;6.468;2023-02-10T05:07:38;1.30;99.90
27306;DHT22;14792;50.886;6.468;2023-02-10T05:10:39;1.20;99.90
27306;DHT22;14792;50.886;6.468;2023-02-10T05:13:41;1.20;99.90
27306;DHT22;14792;50.886;6.468;2023-02-10T05:16:42;1.30;99.90
27306;DHT22;14792;50.886;6.468;2023-02-10T05:19:44;1.30;99.90
27306;DHT22;14792;50.886;6.468;2023-02-10T05:22:45;1.30;99.90
27306;DHT22;14792;50.886;6.468;2023-02-10T05:25:47;1.40;99.90
27306;DHT22;14792;50.886;6.468;2023-02-10T05:28:49;1.40;99.90
27306;DHT22;14792;50.886;6.468;2023-02-10T05:31:50;1.40;99.90
27306;DHT22;14792;50.886;6.468;2023-02-10T05:34:52;1.40;99.90
27306;DHT22;14792;50.886;6.468;2023-02-10T05:37:53;1.40;99.90
27306;DHT22;14792;50.886;6.468;2023-02-10T05:40:55;1.50;99.90
27306;DHT22;14792;50.886;6.468;2023-02-10T05:43:57;1.50;99.90
27306;DHT22;14792;50.886;6.468;2023-02-10T05:46:58;1.50;99.90
27306;DHT22;14792;50.886;6.468;2023-02-10T05:50:00;1.50;99.90
27306;DHT22;14792;50.886;6.468;2023-02-10T05:53:01;1.40;99.90
27306;DHT22;14792;50.886;6.468;2023-02-10T05:56:03;1.40;99.90
27306;DHT22;14792;50.886;6.468;2023-02-10T05:59:05;1.30;99.90
27306;DHT22;14792;50.886;6.468;2023-02-10T06:02:06;1.30;99.90
27306;DHT22;14792;50.886;6.468;2023-02-10T06:05:08;1.20;99.90
27306;DHT22;14792;50.886;6.468;2023-02-10T06:08:09;1.20;99.90
27306;DHT22;14792;50.886;6.468;2023-02-10T06:11:11;1.20;99.90
27306;DHT22;14792;50.886;6.468;2023-02-10T06:14:12;1.10;99.90
27306;DHT22;14792;50.886;6.468;2023-02-10T06:17:14;1.20;99.90
27306;DHT22;14792;50.886;6.468;2023-02-10T06:20:16;1.20;99.90
27306;DHT22;14792;50.886;6.468;2023-02-10T06:23:17;1.20;99.90
27306;DHT22;14792;50.886;6.468;2023-02-10T06:26:19;1.10;99.90
27306;DHT22;14792;50.886;6.468;2023-02-10T06:29:20;1.00;99.90
27306;DHT22;14792;50.886;6.468;2023-02-10T06:32:22;1.10;99.90
27306;DHT22;14792;50.886;6.468;2023-02-10T06:35:24;1.10;99.90
27306;DHT22;14792;50.886;6.468;2023-02-10T06:38:25;1.20;99.90
27306;DHT22;14792;50.886;6.468;2023-02-10T06:41:27;1.20;99.90
27306;DHT22;14792;50.886;6.468;2023-02-10T06:44:28;1.20;99.90
27306;DHT22;14792;50.886;6.468;2023-02-10T06:47:30;1.30;99.90
27306;DHT22;14792;50.886;6.468;2023-02-10T06:50:32;1.30;99.90
27306;DHT22;14792;50.886;6.468;2023-02-10T06:53:33;1.40;99.90
27306;DHT22;14792;50.886;6.468;2023-02-10T06:56:35;1.40;99.90
27306;DHT22;14792;50.886;6.468;2023-02-10T06:59:36;1.40;99.90
27306;DHT22;14792;50.886;6.468;2023-02-10T07:02:38;1.40;99.90
27306;DHT22;14792;50.886;6.468;2023-02-10T07:05:39;1.40;99.90
27306;DHT22;14792;50.886;6.468;2023-02-10T07:08:41;1.40;99.90
27306;DHT22;14792;50.886;6.468;2023-02-10T07:11:43;1.30;99.90
27306;DHT22;14792;50.886;6.468;2023-02-10T07:14:44;1.30;99.90
27306;DHT22;14792;50.886;6.468;2023-02-10T07:17:46;1.20;99.90
27306;DHT22;14792;50.886;6.468;2023-02-10T07:20:47;1.20;99.90
27306;DHT22;14792;50.886;6.468;2023-02-10T07:23:49;1.10;99.90
27306;DHT22;14792;50.886;6.468;2023-02-10T07:26:51;1.00;99.90
27306;DHT22;14792;50.886;6.468;2023-02-10T07:29:52;1.00;99.90
27306;DHT22;14792;50.886;6.468;2023-02-10T07:32:54;1.00;99.90
27306;DHT22;14792;50.886;6.468;2023-02-10T07:35:58;1.00;99.90
27306;DHT22;14792;50.886;6.468;2023-02-10T07:38:57;1.00;99.90
27306;DHT22;14792;50.886;6.468;2023-02-10T07:41:59;1.00;99.90
27306;DHT22;14792;50.886;6.468;2023-02-10T07:45:00;1.00;99.90
27306;DHT22;14792;50.886;6.468;2023-02-10T07:48:02;1.00;99.90
27306;DHT22;14792;50.886;6.468;2023-02-10T07:51:03;1.00;99.90
27306;DHT22;14792;50.886;6.468;2023-02-10T07:54:05;0.90;99.90
27306;DHT22;14792;50.886;6.468;2023-02-10T07:57:06;0.90;99.90
27306;DHT22;14792;50.886;6.468;2023-02-10T08:00:08;0.90;99.90
27306;DHT22;14792;50.886;6.468;2023-02-10T08:03:13;1.00;99.90
27306;DHT22;14792;50.886;6.468;2023-02-10T08:06:18;1.20;99.90
27306;DHT22;14792;50.886;6.468;2023-02-10T08:09:16;1.50;99.90
27306;DHT22;14792;50.886;6.468;2023-02-10T08:12:17;1.50;99.90
27306;DHT22;14792;50.886;6.468;2023-02-10T08:15:19;1.70;99.90
27306;DHT22;14792;50.886;6.468;2023-02-10T08:18:21;1.90;99.90
27306;DHT22;14792;50.886;6.468;2023-02-10T08:21:22;2.10;99.90
27306;DHT22;14792;50.886;6.468;2023-02-10T08:24:24;2.30;99.90
27306;DHT22;14792;50.886;6.468;2023-02-10T08:27:25;2.40;99.90
27306;DHT22;14792;50.886;6.468;2023-02-10T08:30:27;2.50;99.90
27306;DHT22;14792;50.886;6.468;2023-02-10T08:33:29;2.70;99.90
27306;DHT22;14792;50.886;6.468;2023-02-10T08:36:30;2.90;99.90
27306;DHT22;14792;50.886;6.468;2023-02-10T08:39:32;3.10;99.90
27306;DHT22;14792;50.886;6.468;2023-02-10T08:42:33;3.20;99.90
27306;DHT22;14792;50.886;6.468;2023-02-10T08:45:36;3.40;99.90
27306;DHT22;14792;50.886;6.468;2023-02-10T08:48:36;3.60;99.90
27306;DHT22;14792;50.886;6.468;2023-02-10T08:51:38;3.90;99.90
27306;DHT22;14792;50.886;6.468;2023-02-10T08:54:40;4.20;99.90
27306;DHT22;14792;50.886;6.468;2023-02-10T08:57:41;4.30;99.90
27306;DHT22;14792;50.886;6.468;2023-02-10T09:00:43;4.50;99.90
27306;DHT22;14792;50.886;6.468;2023-02-10T09:03:44;4.70;99.90
27306;DHT22;14792;50.886;6.468;2023-02-10T09:06:46;4.90;99.90
27306;DHT22;14792;50.886;6.468;2023-02-10T09:09:48;5.20;99.90
27306;DHT22;14792;50.886;6.468;2023-02-10T09:12:49;5.20;99.90
27306;DHT22;14792;50.886;6.468;2023-02-10T09:15:51;5.20;99.90
27306;DHT22;14792;50.886;6.468;2023-02-10T09:18:52;5.30;99.90
27306;DHT22;14792;50.886;6.468;2023-02-10T09:21:54;5.40;99.90
27306;DHT22;14792;50.886;6.468;2023-02-10T09:24:55;5.40;99.90
27306;DHT22;14792;50.886;6.468;2023-02-10T09:27:57;5.60;99.90
27306;DHT22;14792;50.886;6.468;2023-02-10T09:30:59;5.70;99.90
27306;DHT22;14792;50.886;6.468;2023-02-10T09:34:00;5.70;99.90
27306;DHT22;14792;50.886;6.468;2023-02-10T09:37:03;5.70;99.90
27306;DHT22;14792;50.886;6.468;2023-02-10T09:40:03;5.70;99.90
27306;DHT22;14792;50.886;6.468;2023-02-10T09:43:14;5.70;99.90
27306;DHT22;14792;50.886;6.468;2023-02-10T09:53:04;6.00;99.90
27306;DHT22;14792;50.886;6.468;2023-02-10T09:56:04;6.10;99.90
27306;DHT22;14792;50.886;6.468;2023-02-10T09:59:07;6.40;99.90
27306;DHT22;14792;50.886;6.468;2023-02-10T10:02:15;6.50;99.90
27306;DHT22;14792;50.886;6.468;2023-02-10T10:05:19;6.60;99.90
27306;DHT22;14792;50.886;6.468;2023-02-10T10:11:48;6.90;99.90
27306;DHT22;14792;50.886;6.468;2023-02-10T10:14:46;6.90;99.90
27306;DHT22;14792;50.886;6.468;2023-02-10T10:18:10;6.90;99.90
27306;DHT22;14792;50.886;6.468;2023-02-10T10:24:19;7.00;99.90
27306;DHT22;14792;50.886;6.468;2023-02-10T10:33:55;7.00;99.90
27306;DHT22;14792;50.886;6.468;2023-02-10T10:36:54;7.30;99.90
27306;DHT22;14792;50.886;6.468;2023-02-10T10:39:59;7.40;99.90
27306;DHT22;14792;50.886;6.468;2023-02-10T10:43:00;7.70;99.90
27306;DHT22;14792;50.886;6.468;2023-02-10T10:46:05;7.90;99.90
27306;DHT22;14792;50.886;6.468;2023-02-10T10:49:05;8.10;99.90
27306;DHT22;14792;50.886;6.468;2023-02-10T10:52:26;8.20;99.90
27306;DHT22;14792;50.886;6.468;2023-02-10T10:55:39;8.30;99.90
27306;DHT22;14792;50.886;6.468;2023-02-10T10:58:40;8.20;99.90
27306;DHT22;14792;50.886;6.468;2023-02-10T11:01:42;8.30;99.90
27306;DHT22;14792;50.886;6.468;2023-02-10T11:04:43;8.20;99.90
27306;DHT22;14792;50.886;6.468;2023-02-10T11:07:46;8.00;99.90
27306;DHT22;14792;50.886;6.468;2023-02-10T11:10:47;7.80;99.90
27306;DHT22;14792;50.886;6.468;2023-02-10T11:13:52;7.80;99.90
27306;DHT22;14792;50.886;6.468;2023-02-10T11:16:53;7.70;99.90
27306;DHT22;14792;50.886;6.468;2023-02-10T11:23:15;7.60;99.90
27306;DHT22;14792;50.886;6.468;2023-02-10T11:26:06;7.70;99.90
27306;DHT22;14792;50.886;6.468;2023-02-10T11:29:10;8.00;99.90
27306;DHT22;14792;50.886;6.468;2023-02-10T11:32:18;8.20;99.90
27306;DHT22;14792;50.886;6.468;2023-02-10T11:35:19;8.30;99.90
27306;DHT22;14792;50.886;6.468;2023-02-10T11:38:22;8.20;99.90
27306;DHT22;14792;50.886;6.468;2023-02-10T11:41:27;8.20;99.90
27306;DHT22;14792;50.886;6.468;2023-02-10T11:47:26;8.10;99.90
27306;DHT22;14792;50.886;6.468;2023-02-10T11:50:29;8.20;99.90
27306;DHT22;14792;50.886;6.468;2023-02-10T11:53:29;8.10;99.90
27306;DHT22;14792;50.886;6.468;2023-02-10T11:56:52;8.10;99.90
27306;DHT22;14792;50.886;6.468;2023-02-10T12:06:36;8.40;99.90
27306;DHT22;14792;50.886;6.468;2023-02-10T12:09:46;8.60;99.90
27306;DHT22;14792;50.886;6.468;2023-02-10T12:12:48;8.60;99.90
27306;DHT22;14792;50.886;6.468;2023-02-10T12:16:04;8.50;99.90
27306;DHT22;14792;50.886;6.468;2023-02-10T12:19:08;8.40;99.90
27306;DHT22;14792;50.886;6.468;2023-02-10T12:22:26;8.50;99.90
27306;DHT22;14792;50.886;6.468;2023-02-10T12:25:44;8.80;99.90
27306;DHT22;14792;50.886;6.468;2023-02-10T12:29:00;9.10;99.90
27306;DHT22;14792;50.886;6.468;2023-02-10T12:32:01;8.90;99.90
27306;DHT22;14792;50.886;6.468;2023-02-10T12:41:34;9.40;99.90
27306;DHT22;14792;50.886;6.468;2023-02-10T12:48:12;9.90;99.90
27306;DHT22;14792;50.886;6.468;2023-02-10T12:51:08;9.90;99.90
27306;DHT22;14792;50.886;6.468;2023-02-10T12:54:12;10.10;99.90
27306;DHT22;14792;50.886;6.468;2023-02-10T12:57:26;9.70;99.90
27306;DHT22;14792;50.886;6.468;2023-02-10T13:00:35;9.70;99.90
27306;DHT22;14792;50.886;6.468;2023-02-10T13:03:37;10.00;99.90
27306;DHT22;14792;50.886;6.468;2023-02-10T13:06:56;10.30;99.90
27306;DHT22;14792;50.886;6.468;2023-02-10T13:12:57;10.30;99.90
27306;DHT22;14792;50.886;6.468;2023-02-10T13:16:04;9.80;99.90
27306;DHT22;14792;50.886;6.468;2023-02-10T13:35:28;10.20;99.90
27306;DHT22;14792;50.886;6.468;2023-02-10T13:38:30;10.20;99.90
27306;DHT22;14792;50.886;6.468;2023-02-10T13:41:35;10.10;99.90
27306;DHT22;14792;50.886;6.468;2023-02-10T13:44:44;10.10;99.90
27306;DHT22;14792;50.886;6.468;2023-02-10T13:50:51;10.10;99.90
27306;DHT22;14792;50.886;6.468;2023-02-10T13:53:52;10.40;99.90
27306;DHT22;14792;50.886;6.468;2023-02-10T13:56:55;10.60;99.90
27306;DHT22;14792;50.886;6.468;2023-02-10T14:00:11;10.30;99.90
27306;DHT22;14792;50.886;6.468;2023-02-10T14:03:19;10.10;99.90
27306;DHT22;14792;50.886;6.468;2023-02-10T14:06:05;10.10;99.90
27306;DHT22;14792;50.886;6.468;2023-02-10T14:09:59;10.20;99.90
27306;DHT22;14792;50.886;6.468;2023-02-10T14:12:25;9.90;99.90
27306;DHT22;14792;50.886;6.468;2023-02-10T14:15:27;10.10;99.90
27306;DHT22;14792;50.886;6.468;2023-02-10T14:18:33;9.90;99.90
27306;DHT22;14792;50.886;6.468;2023-02-10T14:21:41;9.80;99.90
27306;DHT22;14792;50.886;6.468;2023-02-10T14:24:42;10.00;99.90
27306;DHT22;14792;50.886;6.468;2023-02-10T14:27:49;10.10;99.90
27306;DHT22;14792;50.886;6.468;2023-02-10T14:30:54;10.40;99.90
27306;DHT22;14792;50.886;6.468;2023-02-10T14:33:59;10.30;99.90
27306;DHT22;14792;50.886;6.468;2023-02-10T14:37:10;10.30;99.90
27306;DHT22;14792;50.886;6.468;2023-02-10T14:40:03;10.20;99.90
27306;DHT22;14792;50.886;6.468;2023-02-10T14:43:05;10.10;99.90
27306;DHT22;14792;50.886;6.468;2023-02-10T14:46:06;9.80;99.90
27306;DHT22;14792;50.886;6.468;2023-02-10T14:49:09;9.90;99.90
27306;DHT22;14792;50.886;6.468;2023-02-10T14:52:26;9.80;99.90
27306;DHT22;14792;50.886;6.468;2023-02-10T14:55:33;9.50;99.90
27306;DHT22;14792;50.886;6.468;2023-02-10T14:58:33;9.40;99.90
27306;DHT22;14792;50.886;6.468;2023-02-10T15:01:35;9.30;99.90
27306;DHT22;14792;50.886;6.468;2023-02-10T15:04:36;9.10;99.90
27306;DHT22;14792;50.886;6.468;2023-02-10T15:07:39;9.20;99.90
27306;DHT22;14792;50.886;6.468;2023-02-10T15:10:43;9.20;99.90
27306;DHT22;14792;50.886;6.468;2023-02-10T15:13:45;9.10;99.90
27306;DHT22;14792;50.886;6.468;2023-02-10T15:16:45;9.00;99.90
27306;DHT22;14792;50.886;6.468;2023-02-10T15:20:00;9.20;99.90
27306;DHT22;14792;50.886;6.468;2023-02-10T15:29:10;9.10;99.90
27306;DHT22;14792;50.886;6.468;2023-02-10T15:32:15;9.10;99.90
27306;DHT22;14792;50.886;6.468;2023-02-10T15:35:15;9.00;99.90
27306;DHT22;14792;50.886;6.468;2023-02-10T15:38:17;9.00;99.90
27306;DHT22;14792;50.886;6.468;2023-02-10T15:41:38;8.80;99.90
27306;DHT22;14792;50.886;6.468;2023-02-10T15:44:39;8.80;99.90
27306;DHT22;14792;50.886;6.468;2023-02-10T15:47:52;8.80;99.90
27306;DHT22;14792;50.886;6.468;2023-02-10T15:50:47;8.70;99.90
27306;DHT22;14792;50.886;6.468;2023-02-10T15:53:50;8.60;99.90
27306;DHT22;14792;50.886;6.468;2023-02-10T15:57:00;8.50;99.90
27306;DHT22;14792;50.886;6.468;2023-02-10T16:00:00;8.50;99.90
27306;DHT22;14792;50.886;6.468;2023-02-10T16:03:02;8.50;99.90
27306;DHT22;14792;50.886;6.468;2023-02-10T16:06:04;8.40;99.90
27306;DHT22;14792;50.886;6.468;2023-02-10T16:09:05;8.40;99.90
27306;DHT22;14792;50.886;6.468;2023-02-10T16:12:07;8.40;99.90
27306;DHT22;14792;50.886;6.468;2023-02-10T16:15:13;8.30;99.90
27306;DHT22;14792;50.886;6.468;2023-02-10T16:18:13;8.30;99.90
27306;DHT22;14792;50.886;6.468;2023-02-10T16:21:12;8.20;99.90
27306;DHT22;14792;50.886;6.468;2023-02-10T16:24:15;8.10;99.90
27306;DHT22;14792;50.886;6.468;2023-02-10T16:27:15;8.10;99.90
27306;DHT22;14792;50.886;6.468;2023-02-10T16:30:18;8.00;99.90
27306;DHT22;14792;50.886;6.468;2023-02-10T16:33:18;7.90;99.90
27306;DHT22;14792;50.886;6.468;2023-02-10T16:36:20;7.70;99.90
27306;DHT22;14792;50.886;6.468;2023-02-10T16:39:21;7.70;99.90
27306;DHT22;14792;50.886;6.468;2023-02-10T16:42:23;7.70;99.90
27306;DHT22;14792;50.886;6.468;2023-02-10T16:45:25;7.60;99.90
27306;DHT22;14792;50.886;6.468;2023-02-10T16:48:26;7.50;99.90
27306;DHT22;14792;50.886;6.468;2023-02-10T16:51:27;7.40;99.90
27306;DHT22;14792;50.886;6.468;2023-02-10T16:54:29;7.30;99.90
27306;DHT22;14792;50.886;6.468;2023-02-10T16:57:31;7.20;99.90
27306;DHT22;14792;50.886;6.468;2023-02-10T17:00:32;7.10;99.90
27306;DHT22;14792;50.886;6.468;2023-02-10T17:03:34;7.00;99.90
27306;DHT22;14792;50.886;6.468;2023-02-10T17:06:38;6.90;99.90
27306;DHT22;14792;50.886;6.468;2023-02-10T17:09:37;6.90;99.90
27306;DHT22;14792;50.886;6.468;2023-02-10T17:12:39;6.80;99.90
27306;DHT22;14792;50.886;6.468;2023-02-10T17:15:40;6.80;99.90
27306;DHT22;14792;50.886;6.468;2023-02-10T17:18:42;6.70;99.90
27306;DHT22;14792;50.886;6.468;2023-02-10T17:21:43;6.70;99.90
27306;DHT22;14792;50.886;6.468;2023-02-10T17:24:45;6.60;99.90
27306;DHT22;14792;50.886;6.468;2023-02-10T17:27:47;6.60;99.90
27306;DHT22;14792;50.886;6.468;2023-02-10T17:30:48;6.70;99.90
27306;DHT22;14792;50.886;6.468;2023-02-10T17:33:50;6.70;99.90
27306;DHT22;14792;50.886;6.468;2023-02-10T17:36:51;6.70;99.90
27306;DHT22;14792;50.886;6.468;2023-02-10T17:39:53;6.70;99.90
27306;DHT22;14792;50.886;6.468;2023-02-10T17:42:54;6.80;99.90
27306;DHT22;14792;50.886;6.468;2023-02-10T17:45:56;6.80;99.90
27306;DHT22;14792;50.886;6.468;2023-02-10T17:48:58;6.90;99.90
27306;DHT22;14792;50.886;6.468;2023-02-10T17:52:00;6.90;99.90
27306;DHT22;14792;50.886;6.468;2023-02-10T17:55:01;6.90;99.90
27306;DHT22;14792;50.886;6.468;2023-02-10T17:58:02;6.90;99.90
27306;DHT22;14792;50.886;6.468;2023-02-10T18:01:04;6.80;99.90
27306;DHT22;14792;50.886;6.468;2023-02-10T18:04:06;6.70;99.90
27306;DHT22;14792;50.886;6.468;2023-02-10T18:07:07;6.60;99.90
27306;DHT22;14792;50.886;6.468;2023-02-10T18:10:09;6.50;99.90
27306;DHT22;14792;50.886;6.468;2023-02-10T18:13:10;6.40;99.90
27306;DHT22;14792;50.886;6.468;2023-02-10T18:16:12;6.30;99.90
27306;DHT22;14792;50.886;6.468;2023-02-10T18:19:14;6.30;99.90
27306;DHT22;14792;50.886;6.468;2023-02-10T18:22:15;6.30;99.90
27306;DHT22;14792;50.886;6.468;2023-02-10T18:25:17;6.20;99.90
27306;DHT22;14792;50.886;6.468;2023-02-10T18:28:18;6.20;99.90
27306;DHT22;14792;50.886;6.468;2023-02-10T18:31:20;6.20;99.90
27306;DHT22;14792;50.886;6.468;2023-02-10T18:34:21;6.20;99.90
27306;DHT22;14792;50.886;6.468;2023-02-10T18:37:23;6.20;99.90
27306;DHT22;14792;50.886;6.468;2023-02-10T18:40:25;6.20;99.90
27306;DHT22;14792;50.886;6.468;2023-02-10T18:43:26;6.10;99.90
27306;DHT22;14792;50.886;6.468;2023-02-10T18:46:28;6.10;99.90
27306;DHT22;14792;50.886;6.468;2023-02-10T18:49:29;6.10;99.90
27306;DHT22;14792;50.886;6.468;2023-02-10T18:52:31;6.10;99.90
27306;DHT22;14792;50.886;6.468;2023-02-10T18:55:33;6.00;99.90
27306;DHT22;14792;50.886;6.468;2023-02-10T18:58:35;6.10;99.90
27306;DHT22;14792;50.886;6.468;2023-02-10T19:01:36;6.10;99.90
27306;DHT22;14792;50.886;6.468;2023-02-10T19:04:37;6.30;99.90
27306;DHT22;14792;50.886;6.468;2023-02-10T19:07:39;6.20;99.90
27306;DHT22;14792;50.886;6.468;2023-02-10T19:10:41;6.30;99.90
27306;DHT22;14792;50.886;6.468;2023-02-10T19:13:42;6.40;99.90
27306;DHT22;14792;50.886;6.468;2023-02-10T19:16:44;6.40;99.90
27306;DHT22;14792;50.886;6.468;2023-02-10T19:19:45;6.40;99.90
27306;DHT22;14792;50.886;6.468;2023-02-10T19:22:48;6.40;99.90
27306;DHT22;14792;50.886;6.468;2023-02-10T19:25:48;6.40;99.90
27306;DHT22;14792;50.886;6.468;2023-02-10T19:28:50;6.40;99.90
27306;DHT22;14792;50.886;6.468;2023-02-10T19:31:52;6.40;99.90
27306;DHT22;14792;50.886;6.468;2023-02-10T19:34:53;6.40;99.90
27306;DHT22;14792;50.886;6.468;2023-02-10T19:37:55;6.40;99.90
27306;DHT22;14792;50.886;6.468;2023-02-10T19:41:13;6.30;99.90
27306;DHT22;14792;50.886;6.468;2023-02-10T19:44:17;6.30;99.90
27306;DHT22;14792;50.886;6.468;2023-02-10T19:47:17;6.40;99.90
27306;DHT22;14792;50.886;6.468;2023-02-10T19:50:19;6.30;99.90
27306;DHT22;14792;50.886;6.468;2023-02-10T19:53:20;6.30;99.90
27306;DHT22;14792;50.886;6.468;2023-02-10T19:56:22;6.30;99.90
27306;DHT22;14792;50.886;6.468;2023-02-10T19:59:24;6.40;99.90
27306;DHT22;14792;50.886;6.468;2023-02-10T20:02:25;6.40;99.90
27306;DHT22;14792;50.886;6.468;2023-02-10T20:05:27;6.40;99.90
27306;DHT22;14792;50.886;6.468;2023-02-10T20:08:28;6.40;99.90
27306;DHT22;14792;50.886;6.468;2023-02-10T20:11:30;6.40;99.90
27306;DHT22;14792;50.886;6.468;2023-02-10T20:14:31;6.40;99.90
27306;DHT22;14792;50.886;6.468;2023-02-10T20:17:33;6.40;99.90
27306;DHT22;14792;50.886;6.468;2023-02-10T20:20:35;6.40;99.90
27306;DHT22;14792;50.886;6.468;2023-02-10T20:23:37;6.40;99.90
27306;DHT22;14792;50.886;6.468;2023-02-10T20:26:38;6.40;99.90
27306;DHT22;14792;50.886;6.468;2023-02-10T20:29:39;6.40;99.90
27306;DHT22;14792;50.886;6.468;2023-02-10T20:32:41;6.40;99.90
27306;DHT22;14792;50.886;6.468;2023-02-10T20:35:43;6.50;99.90
27306;DHT22;14792;50.886;6.468;2023-02-10T20:38:45;6.30;99.90
27306;DHT22;14792;50.886;6.468;2023-02-10T20:41:46;6.30;99.90
27306;DHT22;14792;50.886;6.468;2023-02-10T20:44:47;6.40;99.90
27306;DHT22;14792;50.886;6.468;2023-02-10T20:47:49;6.30;99.90
27306;DHT22;14792;50.886;6.468;2023-02-10T20:50:51;6.40;99.90